sensor_id;sensor_type;location;lat;lon;timestamp;P1;durP1;ratioP1;P2;durP2;ratioP2
11807;SDS011;5961;42.640;23.380;2023-07-29T00:00:59;4.78;;;3.03;;
11807;SDS011;5961;42.640;23.380;2023-07-29T00:03:26;3.63;;;3.28;;
11807;SDS011;5961;42.640;23.380;2023-07-29T00:05:56;3.38;;;3.08;;
11807;SDS011;5961;42.640;23.380;2023-07-29T00:08:23;3.50;;;3.13;;
11807;SDS011;5961;42.640;23.380;2023-07-29T00:10:49;3.10;;;2.83;;
11807;SDS011;5961;42.640;23.380;2023-07-29T00:13:16;3.50;;;3.00;;
11807;SDS011;5961;42.640;23.380;2023-07-29T00:15:43;3.65;;;2.80;;
11807;SDS011;5961;42.640;23.380;2023-07-29T00:18:10;3.65;;;3.10;;
11807;SDS011;5961;42.640;23.380;2023-07-29T00:20:37;3.45;;;3.15;;
11807;SDS011;5961;42.640;23.380;2023-07-29T00:23:05;3.17;;;2.90;;
11807;SDS011;5961;42.640;23.380;2023-07-29T00:25:31;3.35;;;2.85;;
11807;SDS011;5961;42.640;23.380;2023-07-29T00:27:58;3.92;;;2.63;;
11807;SDS011;5961;42.640;23.380;2023-07-29T00:30:25;3.10;;;2.83;;
11807;SDS011;5961;42.640;23.380;2023-07-29T00:32:51;3.22;;;2.92;;
11807;SDS011;5961;42.640;23.380;2023-07-29T00:35:18;3.30;;;3.00;;
11807;SDS011;5961;42.640;23.380;2023-07-29T00:37:45;4.10;;;2.90;;
11807;SDS011;5961;42.640;23.380;2023-07-29T00:40:14;2.93;;;2.73;;
11807;SDS011;5961;42.640;23.380;2023-07-29T00:42:42;3.00;;;2.73;;
11807;SDS011;5961;42.640;23.380;2023-07-29T00:45:09;5.40;;;2.80;;
11807;SDS011;5961;42.640;23.380;2023-07-29T00:47:36;4.13;;;3.37;;
11807;SDS011;5961;42.640;23.380;2023-07-29T00:50:03;3.20;;;2.90;;
11807;SDS011;5961;42.640;23.380;2023-07-29T00:52:31;6.32;;;2.90;;
11807;SDS011;5961;42.640;23.380;2023-07-29T00:54:58;3.60;;;3.30;;
11807;SDS011;5961;42.640;23.380;2023-07-29T00:57:26;3.70;;;2.80;;
11807;SDS011;5961;42.640;23.380;2023-07-29T00:59:54;3.65;;;2.97;;
11807;SDS011;5961;42.640;23.380;2023-07-29T01:02:22;4.85;;;2.90;;
11807;SDS011;5961;42.640;23.380;2023-07-29T01:04:51;3.15;;;2.95;;
11807;SDS011;5961;42.640;23.380;2023-07-29T01:07:19;6.20;;;3.03;;
11807;SDS011;5961;42.640;23.380;2023-07-29T01:09:57;4.17;;;3.07;;
11807;SDS011;5961;42.640;23.380;2023-07-29T01:12:32;4.23;;;2.87;;
11807;SDS011;5961;42.640;23.380;2023-07-29T01:15:08;4.00;;;3.20;;
11807;SDS011;5961;42.640;23.380;2023-07-29T01:17:40;4.70;;;3.10;;
11807;SDS011;5961;42.640;23.380;2023-07-29T01:20:11;3.30;;;3.00;;
11807;SDS011;5961;42.640;23.380;2023-07-29T01:22:40;3.17;;;2.87;;
11807;SDS011;5961;42.640;23.380;2023-07-29T01:25:09;3.30;;;3.10;;
11807;SDS011;5961;42.640;23.380;2023-07-29T01:27:36;3.20;;;2.90;;
11807;SDS011;5961;42.640;23.380;2023-07-29T01:30:03;3.77;;;3.10;;
11807;SDS011;5961;42.640;23.380;2023-07-29T01:32:35;4.83;;;3.03;;
11807;SDS011;5961;42.640;23.380;2023-07-29T01:35:09;3.47;;;3.17;;
11807;SDS011;5961;42.640;23.380;2023-07-29T01:37:47;5.57;;;3.30;;
11807;SDS011;5961;42.640;23.380;2023-07-29T01:40:18;3.53;;;3.23;;
11807;SDS011;5961;42.640;23.380;2023-07-29T01:42:48;4.83;;;3.07;;
11807;SDS011;5961;42.640;23.380;2023-07-29T01:45:15;3.67;;;3.37;;
11807;SDS011;5961;42.640;23.380;2023-07-29T01:47:42;3.27;;;2.97;;
11807;SDS011;5961;42.640;23.380;2023-07-29T01:50:09;3.30;;;3.00;;
11807;SDS011;5961;42.640;23.380;2023-07-29T01:52:36;3.23;;;3.00;;
11807;SDS011;5961;42.640;23.380;2023-07-29T01:55:03;3.00;;;2.80;;
11807;SDS011;5961;42.640;23.380;2023-07-29T01:57:31;3.20;;;2.90;;
11807;SDS011;5961;42.640;23.380;2023-07-29T01:59:57;4.47;;;3.20;;
11807;SDS011;5961;42.640;23.380;2023-07-29T02:02:24;2.97;;;2.77;;
11807;SDS011;5961;42.640;23.380;2023-07-29T02:04:50;3.63;;;3.27;;
11807;SDS011;5961;42.640;23.380;2023-07-29T02:07:17;3.70;;;3.10;;
11807;SDS011;5961;42.640;23.380;2023-07-29T02:09:45;3.10;;;2.90;;
11807;SDS011;5961;42.640;23.380;2023-07-29T02:12:11;4.33;;;2.90;;
11807;SDS011;5961;42.640;23.380;2023-07-29T02:14:40;4.37;;;3.17;;
11807;SDS011;5961;42.640;23.380;2023-07-29T02:17:06;3.17;;;2.87;;
11807;SDS011;5961;42.640;23.380;2023-07-29T02:19:33;4.40;;;3.33;;
11807;SDS011;5961;42.640;23.380;2023-07-29T02:22:00;3.50;;;3.20;;
11807;SDS011;5961;42.640;23.380;2023-07-29T02:24:27;4.40;;;3.27;;
11807;SDS011;5961;42.640;23.380;2023-07-29T02:26:54;3.83;;;3.53;;
11807;SDS011;5961;42.640;23.380;2023-07-29T02:29:20;3.70;;;3.40;;
11807;SDS011;5961;42.640;23.380;2023-07-29T02:31:49;3.53;;;3.20;;
11807;SDS011;5961;42.640;23.380;2023-07-29T02:34:15;5.50;;;3.30;;
11807;SDS011;5961;42.640;23.380;2023-07-29T02:36:42;3.67;;;3.37;;
11807;SDS011;5961;42.640;23.380;2023-07-29T02:39:10;3.70;;;3.40;;
11807;SDS011;5961;42.640;23.380;2023-07-29T02:41:37;3.60;;;3.30;;
11807;SDS011;5961;42.640;23.380;2023-07-29T02:44:04;3.63;;;3.30;;
11807;SDS011;5961;42.640;23.380;2023-07-29T02:46:31;3.27;;;3.07;;
11807;SDS011;5961;42.640;23.380;2023-07-29T02:49:01;3.70;;;3.40;;
11807;SDS011;5961;42.640;23.380;2023-07-29T02:51:28;3.40;;;3.10;;
11807;SDS011;5961;42.640;23.380;2023-07-29T02:53:55;4.13;;;3.30;;
11807;SDS011;5961;42.640;23.380;2023-07-29T02:56:21;4.00;;;2.90;;
11807;SDS011;5961;42.640;23.380;2023-07-29T02:58:48;3.17;;;2.87;;
11807;SDS011;5961;42.640;23.380;2023-07-29T03:01:17;3.50;;;3.20;;
11807;SDS011;5961;42.640;23.380;2023-07-29T03:03:44;3.90;;;3.60;;
11807;SDS011;5961;42.640;23.380;2023-07-29T03:06:12;3.60;;;3.10;;
11807;SDS011;5961;42.640;23.380;2023-07-29T03:08:39;3.33;;;2.87;;
11807;SDS011;5961;42.640;23.380;2023-07-29T03:11:06;5.10;;;2.93;;
11807;SDS011;5961;42.640;23.380;2023-07-29T03:13:34;4.10;;;2.83;;
11807;SDS011;5961;42.640;23.380;2023-07-29T03:16:04;3.33;;;3.00;;
11807;SDS011;5961;42.640;23.380;2023-07-29T03:18:32;3.50;;;3.20;;
11807;SDS011;5961;42.640;23.380;2023-07-29T03:20:58;3.70;;;3.27;;
11807;SDS011;5961;42.640;23.380;2023-07-29T03:23:27;3.67;;;3.33;;
11807;SDS011;5961;42.640;23.380;2023-07-29T03:25:54;3.57;;;3.13;;
11807;SDS011;5961;42.640;23.380;2023-07-29T03:28:23;4.00;;;3.07;;
11807;SDS011;5961;42.640;23.380;2023-07-29T03:30:50;4.00;;;3.60;;
11807;SDS011;5961;42.640;23.380;2023-07-29T03:33:17;5.83;;;3.33;;
11807;SDS011;5961;42.640;23.380;2023-07-29T03:35:43;4.47;;;3.60;;
11807;SDS011;5961;42.640;23.380;2023-07-29T03:38:10;3.50;;;3.10;;
11807;SDS011;5961;42.640;23.380;2023-07-29T03:40:39;4.10;;;3.57;;
11807;SDS011;5961;42.640;23.380;2023-07-29T03:43:06;3.33;;;3.03;;
11807;SDS011;5961;42.640;23.380;2023-07-29T03:45:33;3.97;;;3.20;;
11807;SDS011;5961;42.640;23.380;2023-07-29T03:48:00;4.50;;;3.80;;
11807;SDS011;5961;42.640;23.380;2023-07-29T03:50:27;4.00;;;3.60;;
11807;SDS011;5961;42.640;23.380;2023-07-29T03:52:55;3.77;;;3.47;;
11807;SDS011;5961;42.640;23.380;2023-07-29T03:55:22;5.80;;;3.67;;
11807;SDS011;5961;42.640;23.380;2023-07-29T03:57:50;5.43;;;4.20;;
11807;SDS011;5961;42.640;23.380;2023-07-29T04:00:17;6.97;;;4.90;;
11807;SDS011;5961;42.640;23.380;2023-07-29T04:02:43;6.67;;;5.60;;
11807;SDS011;5961;42.640;23.380;2023-07-29T04:05:10;6.53;;;4.87;;
11807;SDS011;5961;42.640;23.380;2023-07-29T04:07:37;4.90;;;4.30;;
11807;SDS011;5961;42.640;23.380;2023-07-29T04:10:05;5.83;;;4.50;;
11807;SDS011;5961;42.640;23.380;2023-07-29T04:12:33;4.93;;;4.37;;
11807;SDS011;5961;42.640;23.380;2023-07-29T04:15:01;5.20;;;4.43;;
11807;SDS011;5961;42.640;23.380;2023-07-29T04:17:28;5.33;;;4.90;;
11807;SDS011;5961;42.640;23.380;2023-07-29T04:19:54;7.63;;;4.90;;
11807;SDS011;5961;42.640;23.380;2023-07-29T04:22:21;7.97;;;4.83;;
11807;SDS011;5961;42.640;23.380;2023-07-29T04:24:48;6.70;;;4.77;;
11807;SDS011;5961;42.640;23.380;2023-07-29T04:27:14;5.90;;;5.30;;
11807;SDS011;5961;42.640;23.380;2023-07-29T04:29:41;6.87;;;4.97;;
11807;SDS011;5961;42.640;23.380;2023-07-29T04:32:09;5.93;;;4.93;;
11807;SDS011;5961;42.640;23.380;2023-07-29T04:34:36;11.17;;;5.40;;
11807;SDS011;5961;42.640;23.380;2023-07-29T04:37:03;8.80;;;4.87;;
11807;SDS011;5961;42.640;23.380;2023-07-29T04:39:29;8.30;;;6.47;;
11807;SDS011;5961;42.640;23.380;2023-07-29T04:41:56;5.83;;;4.97;;
11807;SDS011;5961;42.640;23.380;2023-07-29T04:44:23;7.87;;;4.23;;
11807;SDS011;5961;42.640;23.380;2023-07-29T04:46:50;6.30;;;5.33;;
11807;SDS011;5961;42.640;23.380;2023-07-29T04:49:18;4.30;;;3.90;;
11807;SDS011;5961;42.640;23.380;2023-07-29T04:51:44;6.13;;;5.53;;
11807;SDS011;5961;42.640;23.380;2023-07-29T04:54:11;6.87;;;4.50;;
11807;SDS011;5961;42.640;23.380;2023-07-29T04:56:38;4.53;;;4.13;;
11807;SDS011;5961;42.640;23.380;2023-07-29T04:59:04;6.00;;;5.40;;
11807;SDS011;5961;42.640;23.380;2023-07-29T05:01:33;6.33;;;4.60;;
11807;SDS011;5961;42.640;23.380;2023-07-29T05:04:00;6.00;;;4.40;;
11807;SDS011;5961;42.640;23.380;2023-07-29T05:06:28;5.50;;;4.10;;
11807;SDS011;5961;42.640;23.380;2023-07-29T05:08:56;5.93;;;4.77;;
11807;SDS011;5961;42.640;23.380;2023-07-29T05:11:24;6.40;;;4.50;;
11807;SDS011;5961;42.640;23.380;2023-07-29T05:13:51;4.73;;;4.33;;
11807;SDS011;5961;42.640;23.380;2023-07-29T05:16:17;4.43;;;4.03;;
11807;SDS011;5961;42.640;23.380;2023-07-29T05:18:44;7.67;;;4.33;;
11807;SDS011;5961;42.640;23.380;2023-07-29T05:21:11;5.77;;;3.90;;
11807;SDS011;5961;42.640;23.380;2023-07-29T05:23:40;4.33;;;3.90;;
11807;SDS011;5961;42.640;23.380;2023-07-29T05:26:07;5.63;;;3.73;;
11807;SDS011;5961;42.640;23.380;2023-07-29T05:28:34;4.37;;;3.97;;
11807;SDS011;5961;42.640;23.380;2023-07-29T05:31:00;4.50;;;4.20;;
11807;SDS011;5961;42.640;23.380;2023-07-29T05:33:27;4.37;;;3.70;;
11807;SDS011;5961;42.640;23.380;2023-07-29T05:35:54;5.07;;;4.30;;
11807;SDS011;5961;42.640;23.380;2023-07-29T05:38:21;4.93;;;4.30;;
11807;SDS011;5961;42.640;23.380;2023-07-29T05:40:49;6.00;;;4.30;;
11807;SDS011;5961;42.640;23.380;2023-07-29T05:43:16;4.60;;;4.20;;
11807;SDS011;5961;42.640;23.380;2023-07-29T05:45:42;4.90;;;4.17;;
11807;SDS011;5961;42.640;23.380;2023-07-29T05:48:09;4.97;;;4.57;;
11807;SDS011;5961;42.640;23.380;2023-07-29T05:50:36;6.70;;;4.23;;
11807;SDS011;5961;42.640;23.380;2023-07-29T05:53:02;4.87;;;4.47;;
11807;SDS011;5961;42.640;23.380;2023-07-29T05:55:29;4.80;;;4.30;;
11807;SDS011;5961;42.640;23.380;2023-07-29T05:57:57;5.10;;;4.60;;
11807;SDS011;5961;42.640;23.380;2023-07-29T06:00:24;5.83;;;4.67;;
11807;SDS011;5961;42.640;23.380;2023-07-29T06:02:51;5.20;;;4.70;;
11807;SDS011;5961;42.640;23.380;2023-07-29T06:05:17;6.63;;;4.53;;
11807;SDS011;5961;42.640;23.380;2023-07-29T06:07:44;5.33;;;4.73;;
11807;SDS011;5961;42.640;23.380;2023-07-29T06:10:13;9.97;;;5.10;;
11807;SDS011;5961;42.640;23.380;2023-07-29T06:12:42;5.10;;;4.60;;
11807;SDS011;5961;42.640;23.380;2023-07-29T06:15:11;5.03;;;4.53;;
11807;SDS011;5961;42.640;23.380;2023-07-29T06:17:38;8.88;;;5.53;;
11807;SDS011;5961;42.640;23.380;2023-07-29T06:20:06;7.50;;;4.80;;
11807;SDS011;5961;42.640;23.380;2023-07-29T06:22:33;6.33;;;4.67;;
11807;SDS011;5961;42.640;23.380;2023-07-29T06:25:00;6.88;;;4.57;;
11807;SDS011;5961;42.640;23.380;2023-07-29T06:27:26;6.75;;;4.45;;
11807;SDS011;5961;42.640;23.380;2023-07-29T06:29:53;4.45;;;4.05;;
11807;SDS011;5961;42.640;23.380;2023-07-29T06:32:21;6.80;;;4.70;;
11807;SDS011;5961;42.640;23.380;2023-07-29T06:34:48;6.47;;;4.40;;
11807;SDS011;5961;42.640;23.380;2023-07-29T06:37:16;8.93;;;4.22;;
11807;SDS011;5961;42.640;23.380;2023-07-29T06:39:43;6.40;;;4.13;;
11807;SDS011;5961;42.640;23.380;2023-07-29T06:42:10;10.15;;;4.07;;
11807;SDS011;5961;42.640;23.380;2023-07-29T06:44:37;8.00;;;4.15;;
11807;SDS011;5961;42.640;23.380;2023-07-29T06:47:04;6.78;;;4.00;;
11807;SDS011;5961;42.640;23.380;2023-07-29T06:49:32;7.15;;;3.78;;
11807;SDS011;5961;42.640;23.380;2023-07-29T06:51:59;7.05;;;3.88;;
11807;SDS011;5961;42.640;23.380;2023-07-29T06:54:25;6.53;;;3.88;;
11807;SDS011;5961;42.640;23.380;2023-07-29T06:56:52;7.85;;;3.60;;
11807;SDS011;5961;42.640;23.380;2023-07-29T06:59:19;7.88;;;4.60;;
11807;SDS011;5961;42.640;23.380;2023-07-29T07:01:47;7.75;;;4.30;;
11807;SDS011;5961;42.640;23.380;2023-07-29T07:04:13;7.05;;;4.95;;
11807;SDS011;5961;42.640;23.380;2023-07-29T07:06:42;7.78;;;4.45;;
11807;SDS011;5961;42.640;23.380;2023-07-29T07:09:08;5.72;;;4.63;;
11807;SDS011;5961;42.640;23.380;2023-07-29T07:11:35;6.88;;;4.65;;
11807;SDS011;5961;42.640;23.380;2023-07-29T07:14:02;5.53;;;4.60;;
11807;SDS011;5961;42.640;23.380;2023-07-29T07:16:28;7.03;;;4.97;;
11807;SDS011;5961;42.640;23.380;2023-07-29T07:18:55;6.70;;;5.03;;
11807;SDS011;5961;42.640;23.380;2023-07-29T07:21:22;6.05;;;4.72;;
11807;SDS011;5961;42.640;23.380;2023-07-29T07:23:50;5.30;;;3.97;;
11807;SDS011;5961;42.640;23.380;2023-07-29T07:26:17;6.35;;;4.20;;
11807;SDS011;5961;42.640;23.380;2023-07-29T07:28:43;5.70;;;4.50;;
11807;SDS011;5961;42.640;23.380;2023-07-29T07:31:10;6.20;;;4.70;;
11807;SDS011;5961;42.640;23.380;2023-07-29T07:33:37;5.90;;;4.22;;
11807;SDS011;5961;42.640;23.380;2023-07-29T07:36:03;8.80;;;4.07;;
11807;SDS011;5961;42.640;23.380;2023-07-29T07:38:30;7.20;;;4.00;;
11807;SDS011;5961;42.640;23.380;2023-07-29T07:40:58;6.93;;;4.00;;
11807;SDS011;5961;42.640;23.380;2023-07-29T07:43:25;7.15;;;4.32;;
11807;SDS011;5961;42.640;23.380;2023-07-29T07:45:57;5.22;;;3.78;;
11807;SDS011;5961;42.640;23.380;2023-07-29T07:48:24;5.97;;;4.38;;
11807;SDS011;5961;42.640;23.380;2023-07-29T07:50:54;7.70;;;4.47;;
11807;SDS011;5961;42.640;23.380;2023-07-29T07:53:21;8.10;;;4.18;;
11807;SDS011;5961;42.640;23.380;2023-07-29T07:55:48;5.47;;;4.30;;
11807;SDS011;5961;42.640;23.380;2023-07-29T07:58:16;9.75;;;6.00;;
11807;SDS011;5961;42.640;23.380;2023-07-29T08:00:43;6.90;;;5.32;;
11807;SDS011;5961;42.640;23.380;2023-07-29T08:03:20;6.90;;;4.35;;
11807;SDS011;5961;42.640;23.380;2023-07-29T08:05:46;11.75;;;4.47;;
11807;SDS011;5961;42.640;23.380;2023-07-29T08:08:15;5.65;;;4.20;;
11807;SDS011;5961;42.640;23.380;2023-07-29T08:10:41;8.75;;;4.47;;
11807;SDS011;5961;42.640;23.380;2023-07-29T08:13:08;8.27;;;4.35;;
11807;SDS011;5961;42.640;23.380;2023-07-29T08:15:36;8.60;;;4.47;;
11807;SDS011;5961;42.640;23.380;2023-07-29T08:18:03;4.57;;;4.03;;
11807;SDS011;5961;42.640;23.380;2023-07-29T08:20:30;6.72;;;4.55;;
11807;SDS011;5961;42.640;23.380;2023-07-29T08:22:57;8.68;;;4.80;;
11807;SDS011;5961;42.640;23.380;2023-07-29T08:25:24;10.02;;;4.82;;
11807;SDS011;5961;42.640;23.380;2023-07-29T08:27:51;6.32;;;4.68;;
11807;SDS011;5961;42.640;23.380;2023-07-29T08:30:18;6.65;;;4.28;;
11807;SDS011;5961;42.640;23.380;2023-07-29T08:32:46;7.20;;;4.00;;
11807;SDS011;5961;42.640;23.380;2023-07-29T08:35:13;6.32;;;4.35;;
11807;SDS011;5961;42.640;23.380;2023-07-29T08:37:39;11.20;;;5.45;;
11807;SDS011;5961;42.640;23.380;2023-07-29T08:40:07;10.18;;;5.03;;
11807;SDS011;5961;42.640;23.380;2023-07-29T08:42:34;4.28;;;3.88;;
11807;SDS011;5961;42.640;23.380;2023-07-29T08:45:06;5.50;;;4.18;;
11807;SDS011;5961;42.640;23.380;2023-07-29T08:47:34;4.95;;;4.45;;
11807;SDS011;5961;42.640;23.380;2023-07-29T08:50:02;4.18;;;3.75;;
11807;SDS011;5961;42.640;23.380;2023-07-29T08:52:31;4.35;;;3.95;;
11807;SDS011;5961;42.640;23.380;2023-07-29T08:54:59;6.05;;;3.97;;
11807;SDS011;5961;42.640;23.380;2023-07-29T08:57:27;5.03;;;3.80;;
11807;SDS011;5961;42.640;23.380;2023-07-29T08:59:54;5.45;;;3.60;;
11807;SDS011;5961;42.640;23.380;2023-07-29T09:02:22;5.72;;;4.00;;
11807;SDS011;5961;42.640;23.380;2023-07-29T09:04:49;5.30;;;4.05;;
11807;SDS011;5961;42.640;23.380;2023-07-29T09:07:17;5.03;;;3.22;;
11807;SDS011;5961;42.640;23.380;2023-07-29T09:09:45;4.90;;;3.50;;
11807;SDS011;5961;42.640;23.380;2023-07-29T09:12:12;8.13;;;2.60;;
11807;SDS011;5961;42.640;23.380;2023-07-29T09:14:38;5.43;;;3.53;;
11807;SDS011;5961;42.640;23.380;2023-07-29T09:17:06;4.63;;;3.25;;
11807;SDS011;5961;42.640;23.380;2023-07-29T09:19:33;5.07;;;2.97;;
11807;SDS011;5961;42.640;23.380;2023-07-29T09:22:00;4.72;;;3.35;;
11807;SDS011;5961;42.640;23.380;2023-07-29T09:24:28;3.92;;;3.58;;
11807;SDS011;5961;42.640;23.380;2023-07-29T09:26:57;4.05;;;3.20;;
11807;SDS011;5961;42.640;23.380;2023-07-29T09:29:27;6.88;;;3.72;;
11807;SDS011;5961;42.640;23.380;2023-07-29T09:31:56;4.70;;;3.30;;
11807;SDS011;5961;42.640;23.380;2023-07-29T09:34:44;4.80;;;3.60;;
11807;SDS011;5961;42.640;23.380;2023-07-29T09:37:14;5.80;;;3.03;;
11807;SDS011;5961;42.640;23.380;2023-07-29T09:39:45;3.90;;;3.28;;
11807;SDS011;5961;42.640;23.380;2023-07-29T09:42:16;3.58;;;2.75;;
11807;SDS011;5961;42.640;23.380;2023-07-29T09:44:44;2.72;;;2.28;;
11807;SDS011;5961;42.640;23.380;2023-07-29T09:47:18;2.83;;;2.35;;
11807;SDS011;5961;42.640;23.380;2023-07-29T09:49:46;2.45;;;1.88;;
11807;SDS011;5961;42.640;23.380;2023-07-29T09:52:14;2.65;;;1.90;;
11807;SDS011;5961;42.640;23.380;2023-07-29T09:54:41;4.20;;;2.35;;
11807;SDS011;5961;42.640;23.380;2023-07-29T09:57:10;3.60;;;2.97;;
11807;SDS011;5961;42.640;23.380;2023-07-29T09:59:37;2.33;;;2.13;;
11807;SDS011;5961;42.640;23.380;2023-07-29T10:02:04;2.55;;;2.35;;
11807;SDS011;5961;42.640;23.380;2023-07-29T10:04:30;2.80;;;2.00;;
11807;SDS011;5961;42.640;23.380;2023-07-29T10:06:59;2.17;;;2.08;;
11807;SDS011;5961;42.640;23.380;2023-07-29T10:09:28;2.60;;;2.40;;
11807;SDS011;5961;42.640;23.380;2023-07-29T10:11:54;2.75;;;2.00;;
11807;SDS011;5961;42.640;23.380;2023-07-29T10:14:24;2.20;;;2.00;;
11807;SDS011;5961;42.640;23.380;2023-07-29T10:16:54;3.45;;;2.28;;
11807;SDS011;5961;42.640;23.380;2023-07-29T10:19:22;4.40;;;2.13;;
11807;SDS011;5961;42.640;23.380;2023-07-29T10:21:50;3.10;;;2.20;;
11807;SDS011;5961;42.640;23.380;2023-07-29T10:24:19;2.20;;;1.73;;
11807;SDS011;5961;42.640;23.380;2023-07-29T10:26:53;2.72;;;1.80;;
11807;SDS011;5961;42.640;23.380;2023-07-29T10:29:27;2.10;;;1.90;;
11807;SDS011;5961;42.640;23.380;2023-07-29T10:31:57;1.98;;;1.88;;
11807;SDS011;5961;42.640;23.380;2023-07-29T10:34:24;2.80;;;1.92;;
11807;SDS011;5961;42.640;23.380;2023-07-29T10:36:51;2.28;;;2.00;;
11807;SDS011;5961;42.640;23.380;2023-07-29T10:39:18;1.90;;;1.80;;
11807;SDS011;5961;42.640;23.380;2023-07-29T10:41:55;2.20;;;2.10;;
11807;SDS011;5961;42.640;23.380;2023-07-29T10:47:18;4.35;;;2.30;;
11807;SDS011;5961;42.640;23.380;2023-07-29T10:49:47;2.30;;;2.13;;
11807;SDS011;5961;42.640;23.380;2023-07-29T10:52:16;2.50;;;2.30;;
11807;SDS011;5961;42.640;23.380;2023-07-29T10:54:53;2.60;;;1.88;;
11807;SDS011;5961;42.640;23.380;2023-07-29T10:57:30;2.00;;;1.90;;
11807;SDS011;5961;42.640;23.380;2023-07-29T11:00:00;3.55;;;2.15;;
11807;SDS011;5961;42.640;23.380;2023-07-29T11:02:28;1.70;;;1.60;;
11807;SDS011;5961;42.640;23.380;2023-07-29T11:04:56;1.95;;;1.80;;
11807;SDS011;5961;42.640;23.380;2023-07-29T11:07:24;2.38;;;1.70;;
11807;SDS011;5961;42.640;23.380;2023-07-29T11:09:56;4.68;;;1.63;;
11807;SDS011;5961;42.640;23.380;2023-07-29T11:12:37;3.63;;;1.80;;
11807;SDS011;5961;42.640;23.380;2023-07-29T11:15:13;4.65;;;1.90;;
11807;SDS011;5961;42.640;23.380;2023-07-29T11:17:45;3.35;;;2.20;;
11807;SDS011;5961;42.640;23.380;2023-07-29T11:20:13;1.90;;;1.63;;
11807;SDS011;5961;42.640;23.380;2023-07-29T11:22:41;2.08;;;1.85;;
11807;SDS011;5961;42.640;23.380;2023-07-29T11:25:08;1.80;;;1.70;;
11807;SDS011;5961;42.640;23.380;2023-07-29T11:27:37;2.10;;;2.00;;
11807;SDS011;5961;42.640;23.380;2023-07-29T11:30:05;2.58;;;2.03;;
11807;SDS011;5961;42.640;23.380;2023-07-29T11:32:34;1.80;;;1.70;;
11807;SDS011;5961;42.640;23.380;2023-07-29T11:35:02;4.03;;;2.10;;
11807;SDS011;5961;42.640;23.380;2023-07-29T11:37:30;1.92;;;1.83;;
11807;SDS011;5961;42.640;23.380;2023-07-29T11:39:57;1.70;;;1.60;;
11807;SDS011;5961;42.640;23.380;2023-07-29T11:42:24;2.03;;;1.92;;
11807;SDS011;5961;42.640;23.380;2023-07-29T11:44:52;2.13;;;2.00;;
11807;SDS011;5961;42.640;23.380;2023-07-29T11:47:19;2.25;;;2.13;;
11807;SDS011;5961;42.640;23.380;2023-07-29T11:49:47;2.30;;;2.10;;
11807;SDS011;5961;42.640;23.380;2023-07-29T11:52:14;2.42;;;2.03;;
11807;SDS011;5961;42.640;23.380;2023-07-29T11:54:44;2.85;;;1.98;;
11807;SDS011;5961;42.640;23.380;2023-07-29T11:57:11;3.25;;;1.92;;
11807;SDS011;5961;42.640;23.380;2023-07-29T11:59:39;4.55;;;2.20;;
11807;SDS011;5961;42.640;23.380;2023-07-29T12:02:08;2.30;;;2.17;;
11807;SDS011;5961;42.640;23.380;2023-07-29T12:04:38;3.80;;;2.00;;
11807;SDS011;5961;42.640;23.380;2023-07-29T12:07:07;2.78;;;2.05;;
11807;SDS011;5961;42.640;23.380;2023-07-29T12:09:34;2.85;;;1.70;;
11807;SDS011;5961;42.640;23.380;2023-07-29T12:12:02;1.88;;;1.77;;
11807;SDS011;5961;42.640;23.380;2023-07-29T12:14:29;2.00;;;1.90;;
11807;SDS011;5961;42.640;23.380;2023-07-29T12:16:56;1.90;;;1.80;;
11807;SDS011;5961;42.640;23.380;2023-07-29T12:19:30;1.90;;;1.80;;
11807;SDS011;5961;42.640;23.380;2023-07-29T12:21:58;1.98;;;1.88;;
11807;SDS011;5961;42.640;23.380;2023-07-29T12:24:26;2.05;;;1.95;;
11807;SDS011;5961;42.640;23.380;2023-07-29T12:26:53;3.40;;;1.95;;
11807;SDS011;5961;42.640;23.380;2023-07-29T12:29:20;4.35;;;2.50;;
11807;SDS011;5961;42.640;23.380;2023-07-29T12:31:46;2.95;;;2.13;;
11807;SDS011;5961;42.640;23.380;2023-07-29T12:34:17;2.30;;;2.13;;
11807;SDS011;5961;42.640;23.380;2023-07-29T12:36:45;4.03;;;1.70;;
11807;SDS011;5961;42.640;23.380;2023-07-29T12:39:17;4.15;;;2.10;;
11807;SDS011;5961;42.640;23.380;2023-07-29T12:41:46;2.15;;;1.95;;
11807;SDS011;5961;42.640;23.380;2023-07-29T12:44:13;3.42;;;1.90;;
11807;SDS011;5961;42.640;23.380;2023-07-29T12:46:40;2.30;;;2.10;;
11807;SDS011;5961;42.640;23.380;2023-07-29T12:49:07;2.03;;;1.88;;
11807;SDS011;5961;42.640;23.380;2023-07-29T12:51:33;2.40;;;2.20;;
11807;SDS011;5961;42.640;23.380;2023-07-29T12:54:01;4.30;;;2.22;;
11807;SDS011;5961;42.640;23.380;2023-07-29T12:56:29;3.85;;;2.10;;
11807;SDS011;5961;42.640;23.380;2023-07-29T12:58:57;4.78;;;2.90;;
11807;SDS011;5961;42.640;23.380;2023-07-29T13:01:24;3.58;;;2.30;;
11807;SDS011;5961;42.640;23.380;2023-07-29T13:03:51;2.20;;;2.00;;
11807;SDS011;5961;42.640;23.380;2023-07-29T13:06:18;2.88;;;2.00;;
11807;SDS011;5961;42.640;23.380;2023-07-29T13:08:45;3.35;;;2.00;;
11807;SDS011;5961;42.640;23.380;2023-07-29T13:11:12;2.55;;;2.30;;
11807;SDS011;5961;42.640;23.380;2023-07-29T13:13:40;2.30;;;2.10;;
11807;SDS011;5961;42.640;23.380;2023-07-29T13:16:09;2.67;;;2.47;;
11807;SDS011;5961;42.640;23.380;2023-07-29T13:18:35;2.47;;;2.10;;
11807;SDS011;5961;42.640;23.380;2023-07-29T13:21:02;2.30;;;2.10;;
11807;SDS011;5961;42.640;23.380;2023-07-29T13:23:29;2.40;;;2.15;;
11807;SDS011;5961;42.640;23.380;2023-07-29T13:25:55;2.28;;;2.10;;
11807;SDS011;5961;42.640;23.380;2023-07-29T13:28:22;2.55;;;2.35;;
11807;SDS011;5961;42.640;23.380;2023-07-29T13:30:49;2.40;;;2.20;;
11807;SDS011;5961;42.640;23.380;2023-07-29T13:33:17;2.55;;;2.10;;
11807;SDS011;5961;42.640;23.380;2023-07-29T13:35:44;2.40;;;2.20;;
11807;SDS011;5961;42.640;23.380;2023-07-29T13:38:11;4.47;;;2.40;;
11807;SDS011;5961;42.640;23.380;2023-07-29T13:40:37;3.53;;;2.47;;
11807;SDS011;5961;42.640;23.380;2023-07-29T13:43:04;3.15;;;2.35;;
11807;SDS011;5961;42.640;23.380;2023-07-29T13:45:31;2.40;;;2.20;;
11807;SDS011;5961;42.640;23.380;2023-07-29T13:47:57;3.33;;;2.60;;
11807;SDS011;5961;42.640;23.380;2023-07-29T13:50:25;2.60;;;2.40;;
11807;SDS011;5961;42.640;23.380;2023-07-29T13:52:52;2.13;;;2.03;;
11807;SDS011;5961;42.640;23.380;2023-07-29T13:55:19;5.78;;;2.30;;
11807;SDS011;5961;42.640;23.380;2023-07-29T13:57:46;2.40;;;2.20;;
11807;SDS011;5961;42.640;23.380;2023-07-29T14:00:13;2.72;;;2.53;;
11807;SDS011;5961;42.640;23.380;2023-07-29T14:02:41;2.92;;;2.30;;
11807;SDS011;5961;42.640;23.380;2023-07-29T14:05:07;3.17;;;2.72;;
11807;SDS011;5961;42.640;23.380;2023-07-29T14:07:35;2.65;;;2.40;;
11807;SDS011;5961;42.640;23.380;2023-07-29T14:10:02;3.42;;;2.50;;
11807;SDS011;5961;42.640;23.380;2023-07-29T14:12:30;3.15;;;2.35;;
11807;SDS011;5961;42.640;23.380;2023-07-29T14:14:56;3.83;;;2.45;;
11807;SDS011;5961;42.640;23.380;2023-07-29T14:17:23;4.20;;;2.30;;
11807;SDS011;5961;42.640;23.380;2023-07-29T14:19:50;2.88;;;2.58;;
11807;SDS011;5961;42.640;23.380;2023-07-29T14:22:16;3.47;;;2.38;;
11807;SDS011;5961;42.640;23.380;2023-07-29T14:24:44;3.53;;;2.60;;
11807;SDS011;5961;42.640;23.380;2023-07-29T14:27:11;3.05;;;2.67;;
11807;SDS011;5961;42.640;23.380;2023-07-29T14:29:39;2.95;;;2.75;;
11807;SDS011;5961;42.640;23.380;2023-07-29T14:32:06;4.50;;;2.58;;
11807;SDS011;5961;42.640;23.380;2023-07-29T14:34:32;4.15;;;2.83;;
11807;SDS011;5961;42.640;23.380;2023-07-29T14:36:59;3.13;;;2.83;;
11807;SDS011;5961;42.640;23.380;2023-07-29T14:39:26;3.72;;;3.20;;
11807;SDS011;5961;42.640;23.380;2023-07-29T14:41:54;4.57;;;3.08;;
11807;SDS011;5961;42.640;23.380;2023-07-29T14:44:20;3.35;;;2.33;;
11807;SDS011;5961;42.640;23.380;2023-07-29T14:46:47;2.60;;;2.40;;
11807;SDS011;5961;42.640;23.380;2023-07-29T14:49:14;3.53;;;2.17;;
11807;SDS011;5961;42.640;23.380;2023-07-29T14:51:40;5.93;;;2.50;;
11807;SDS011;5961;42.640;23.380;2023-07-29T14:54:07;2.85;;;2.17;;